Latest Weather Observations for Karratha

IDW60801

Issued at 8:33 am WST Tuesday 20 November 2018 (issued every 10 minutes, with the page automatically refreshed every 10 minutes)

About weather observations | Map of weather stations | Latest weather observations for WA | Other Formats
Station Details ID: 004083 Name: KARRATHA AERO Lat: -20.71 Lon: 116.77 Height: 5.3 m
Data from the previous 72 hours. | See also: Recent months at Karratha
Date/Time
WST
Temp
°C
App
Temp
°C
Dew
Point
°C
Rel
Hum
%
Delta-T
°C
Wind Press
QNH
hPa
Press
MSL
hPa
Rain since
9am
mm
Dir  Spd
km/h
Gust
km/h
Spd
kts
Gust
kts
20/08:30am 32.5 29.5 5.9 19 14.3 SW 11 17 6 9 1007.9 1007.9 0.0
20/08:00am 29.0 25.6 9.2 29 11.0 W 17 20 9 11 1007.7 1007.7 0.0
20/07:30am 27.0 23.8 9.8 34 9.5 W 17 19 9 10 1007.6 1007.6 0.0
20/07:00am 25.8 22.4 9.2 35 9.1 WSW 17 19 9 10 1007.4 1007.4 0.0
20/06:30am 24.4 20.5 8.8 37 8.4 WSW 19 22 10 12 1007.2 1007.2 0.0
20/06:00am 22.9 19.6 9.7 43 7.2 WSW 17 19 9 10 1007.1 1007.1 0.0
20/05:30am 23.0 20.3 10.4 45 6.9 WSW 15 19 8 10 1006.8 1006.8 0.0
20/05:00am 24.2 21.0 11.2 44 7.3 WSW 19 20 10 11 1006.3 1006.3 0.0
20/04:30am 24.5 21.6 11.1 43 7.5 WSW 17 20 9 11 1006.1 1006.1 0.0
20/04:00am 25.0 21.8 11.2 42 7.8 W 19 22 10 12 1005.9 1005.9 0.0
20/03:30am 25.3 21.7 11.8 43 7.7 WSW 22 26 12 14 1005.4 1005.4 0.0
20/03:00am 25.7 21.8 12.2 43 7.8 WSW 24 28 13 15 1005.3 1005.3 0.0
20/02:30am 25.8 22.1 12.6 44 7.6 WSW 24 30 13 16 1005.3 1005.3 0.0
20/02:00am 26.0 22.2 13.5 46 7.4 WSW 26 33 14 18 1005.4 1005.4 0.0
20/01:30am 26.3 22.4 14.4 48 7.1 WSW 28 33 15 18 1005.5 1005.5 0.0
20/01:00am 26.4 23.0 15.8 52 6.5 WSW 28 32 15 17 1005.8 1005.8 0.0
20/12:30am 26.5 23.5 16.7 55 6.1 WSW 28 32 15 17 1006.0 1006.0 0.0
20/12:00am 26.6 24.0 17.7 58 5.6 WSW 28 32 15 17 1006.1 1006.1 0.0
 
Date/Time
WST
Temp
°C
App
Temp
°C
Dew
Point
°C
Rel
Hum
%
Delta-T
°C
Wind Press
QNH
hPa
Press
MSL
hPa
Rain since
9am
mm
Dir  Spd
km/h
Gust
km/h
Spd
kts
Gust
kts
19/11:30pm 26.8 24.8 18.4 60 5.3 WSW 26 32 14 17 1006.3 1006.3 0.0
19/11:00pm 26.9 25.5 18.7 60 5.3 WSW 24 28 13 15 1006.6 1006.6 0.0
19/10:30pm 27.2 25.5 19.0 61 5.3 WSW 26 30 14 16 1006.8 1006.8 0.0
19/10:00pm 27.5 25.1 19.0 59 5.5 WSW 30 37 16 20 1006.8 1006.8 0.0
19/09:30pm 27.8 25.1 19.3 60 5.5 WSW 32 39 17 21 1006.7 1006.7 0.0
19/09:00pm 28.3 25.2 18.4 55 6.3 WSW 32 41 17 22 1006.7 1006.7 0.0
19/08:30pm 28.6 24.8 18.1 53 6.7 WSW 35 43 19 23 1006.5 1006.5 0.0
19/08:00pm 28.9 25.6 18.4 53 6.7 W 33 43 18 23 1006.5 1006.5 0.0
19/07:30pm 29.2 25.9 19.2 54 6.5 W 35 44 19 24 1006.3 1006.3 0.0
19/07:00pm 29.8 25.5 18.6 51 7.2 W 39 48 21 26 1006.0 1006.0 0.0
19/06:30pm 30.5 26.3 18.9 50 7.5 W 39 46 21 25 1005.5 1005.5 0.0
19/06:00pm 31.3 28.7 20.6 53 7.1 W 35 43 19 23 1005.3 1005.3 0.0
19/05:30pm 31.4 27.3 20.0 50 7.5 W 41 48 22 26 1005.1 1005.1 0.0
19/05:00pm 32.1 27.6 20.0 48 8.0 W 43 48 23 26 1005.0 1005.0 0.0
19/04:30pm 33.0 28.8 20.5 47 8.3 W 43 50 23 27 1004.7 1004.7 0.0
19/04:00pm 33.5 28.7 19.6 44 9.2 W 44 52 24 28 1004.6 1004.6 0.0
19/03:30pm 34.4 28.8 18.8 39 10.2 W 46 54 25 29 1004.5 1004.5 0.0
19/03:00pm 34.4 28.8 18.8 39 10.2 W 46 52 25 28 1004.6 1004.6 0.0
19/02:30pm 34.3 30.2 19.1 40 10.0 W 39 46 21 25 1005.0 1005.0 0.0
19/02:00pm 35.6 30.7 18.2 35 11.4 W 41 50 22 27 1005.1 1005.1 0.0
19/01:30pm 35.8 30.8 18.8 36 11.2 W 43 52 23 28 1005.4 1005.4 0.0
19/01:00pm 35.8 30.8 18.8 36 11.2 W 43 50 23 27 1005.6 1005.6 0.0
19/12:30pm 37.1 32.9 18.1 32 12.4 W 37 46 20 25 1005.9 1005.9 0.0
19/12:00pm 37.4 32.7 16.9 30 13.2 W 37 44 20 24 1006.4 1006.4 0.0
19/11:30am 37.6 33.3 15.4 27 14.0 W 32 39 17 21 1006.8 1006.8 0.0
19/11:00am 37.2 34.3 15.1 27 13.9 WNW 24 32 13 17 1007.3 1007.3 0.0
19/10:30am 38.4 34.9 12.2 21 15.9 WNW 22 28 12 15 1007.6 1007.6 0.0
19/10:00am 38.3 33.8 6.1 14 17.9 WNW 19 22 10 12 1008.0 1008.0 0.0
19/09:30am 37.1 33.2 7.1 16 16.8 NW 17 20 9 11 1008.2 1008.2 0.0
19/09:00am 37.3 33.6 6.3 15 17.2 SSW 15 20 8 11 1008.4 1008.4 0.0
19/08:30am 36.0 31.3 5.3 15 16.6 SSW 19 26 10 14 1008.3 1008.3 0.0
19/08:00am 34.3 30.5 5.8 17 15.4 SW 15 20 8 11 1008.3 1008.3 0.0
19/07:30am 33.0 28.7 7.1 20 14.2 SSW 19 26 10 14 1008.0 1008.0 0.0
19/07:00am 31.3 28.2 8.9 25 12.5 WSW 15 26 8 14 1007.6 1007.6 0.0
19/06:30am 28.6 25.5 10.3 32 10.3 SW 17 20 9 11 1007.7 1007.7 0.0
19/06:00am 27.8 24.6 11.4 36 9.4 WSW 19 20 10 11 1007.3 1007.3 0.0
19/05:30am 27.7 25.4 12.9 40 8.7 WSW 17 20 9 11 1007.0 1007.0 0.0
19/05:00am 27.9 25.5 12.7 39 8.9 W 17 19 9 10 1006.9 1006.9 0.0
19/04:30am 28.2 25.9 11.7 36 9.5 WSW 15 17 8 9 1006.7 1006.7 0.0
19/04:00am 28.6 25.6 9.3 30 10.7 WSW 15 17 8 9 1006.4 1006.4 0.0
19/03:30am 29.4 26.2 10.0 30 10.9 WSW 17 19 9 10 1006.3 1006.3 0.0
19/03:00am 29.9 26.6 9.4 28 11.5 WSW 17 19 9 10 1006.2 1006.2 0.0
19/02:30am 30.1 26.9 10.1 29 11.3 WSW 17 20 9 11 1006.1 1006.1 0.0
19/02:00am 30.4 28.0 11.4 31 11.0 SW 15 19 8 10 1006.3 1006.3 0.0
19/01:30am 30.7 27.6 11.6 31 11.1 WSW 19 22 10 12 1006.3 1006.3 0.0
19/01:00am 30.4 27.7 12.8 34 10.4 WSW 19 20 10 11 1006.5 1006.5 0.0
19/12:30am 30.4 27.3 12.3 33 10.6 WSW 20 24 11 13 1006.6 1006.6 0.0
19/12:00am 30.4 27.9 14.1 37 9.9 WSW 20 24 11 13 1006.8 1006.8 0.0
 
Date/Time
WST
Temp
°C
App
Temp
°C
Dew
Point
°C
Rel
Hum
%
Delta-T
°C
Wind Press
QNH
hPa
Press
MSL
hPa
Rain since
9am
mm
Dir  Spd
km/h
Gust
km/h
Spd
kts
Gust
kts
18/11:30pm 30.4 28.5 15.7 41 9.1 WSW 20 26 11 14 1007.0 1007.0 0.0
18/11:00pm 30.8 27.9 16.0 40 9.2 WSW 26 32 14 17 1007.2 1007.2 0.0
18/10:30pm 30.6 27.8 17.3 45 8.4 WSW 28 35 15 19 1007.3 1007.3 0.0
18/10:00pm 30.6 28.7 17.7 46 8.2 WSW 24 32 13 17 1007.5 1007.5 0.0
18/09:30pm 30.7 28.2 18.1 47 8.1 WSW 28 35 15 19 1007.3 1007.3 0.0
18/09:00pm 30.6 27.6 18.7 49 7.7 WSW 32 39 17 21 1007.1 1007.1 0.0
18/08:30pm 30.7 27.3 19.1 50 7.5 WSW 35 41 19 22 1007.0 1007.0 0.0
18/08:00pm 30.9 26.7 18.9 48 7.8 WSW 39 46 21 25 1006.9 1006.9 0.0
18/07:30pm 31.6 27.6 18.6 46 8.4 WSW 37 46 20 25 1006.8 1006.8 0.0
18/07:00pm 32.6 27.3 17.2 39 9.8 WSW 41 52 22 28 1006.3 1006.3 0.0
18/06:30pm 32.7 29.2 19.6 46 8.6 W 37 46 20 25 1006.0 1006.0 0.0
18/06:00pm 33.7 28.6 18.6 40 9.9 W 43 52 23 28 1005.6 1005.6 0.0
18/05:30pm 33.0 28.6 20.2 47 8.5 W 43 50 23 27 1005.4 1005.4 0.0
18/05:00pm 33.3 28.7 20.1 45 8.8 W 44 52 24 28 1005.1 1005.1 0.0
18/04:30pm 33.9 28.9 19.2 42 9.7 W 44 54 24 29 1004.9 1004.9 0.0
18/04:00pm 35.5 29.8 18.6 37 11.1 W 46 57 25 31 1004.9 1004.9 0.0
18/03:30pm 36.0 31.3 18.6 36 11.4 W 41 54 22 29 1005.1 1005.1 0.0
18/03:00pm 36.7 31.0 17.3 31 12.6 W 43 52 23 28 1005.1 1005.1 0.0
18/02:30pm 37.0 32.0 17.1 31 12.8 W 39 54 21 29 1005.5 1005.5 0.0
18/02:00pm 37.5 31.7 15.9 28 13.8 W 41 50 22 27 1005.9 1005.9 0.0
18/01:30pm 38.1 34.2 17.0 29 13.6 W 33 41 18 22 1006.4 1006.4 0.0
18/01:00pm 37.8 33.8 16.7 29 13.6 W 33 44 18 24 1006.6 1006.6 0.0
18/12:30pm 38.7 36.0 17.5 29 13.8 W 28 35 15 19 1007.3 1007.3 0.0
18/12:00pm 37.6 35.5 19.0 33 12.3 WNW 28 33 15 18 1007.6 1007.6 0.0
18/11:30am 37.3 36.1 18.3 32 12.5 NW 22 28 12 15 1008.0 1008.0 0.0
18/11:00am 38.7 36.9 16.9 27 14.1 WNW 22 30 12 16 1008.2 1008.2 0.0
18/10:30am 42.0 36.1 4.1 10 20.7 S 24 39 13 21 1008.4 1008.4 0.0
18/10:00am 40.8 35.8 4.6 11 19.9 S 20 35 11 19 1008.7 1008.7 0.0
18/09:30am 40.5 34.9 5.6 12 19.4 S 24 30 13 16 1009.0 1009.0 0.0
18/09:00am 39.4 33.9 5.9 13 18.6 S 24 33 13 18 1009.0 1009.0 0.0
18/08:30am 38.5 32.7 6.3 14 17.9 S 26 32 14 17 1009.1 1009.1 0.0
18/08:00am 37.0 31.7 7.0 16 16.7 S 24 32 13 17 1009.0 1009.0 0.0
18/07:30am 35.7 31.0 7.7 18 15.7 S 22 28 12 15 1008.8 1008.8 0.0
18/07:00am 34.1 30.2 8.7 21 14.4 SSW 19 26 10 14 1008.6 1008.6 0.0
18/06:30am 30.1 28.3 12.1 33 10.5 SW 13 17 7 9 1008.3 1008.3 0.0
18/06:00am 27.5 26.6 14.8 45 7.7 WSW 13 15 7 8 1008.1 1008.1 0.0
18/05:30am 26.6 25.2 14.4 47 7.3 SW 15 15 8 8 1007.8 1007.8 0.0
18/05:00am 27.2 25.9 15.9 50 6.9 WSW 17 19 9 10 1007.4 1007.4 0.0
18/04:30am 27.6 26.6 15.6 48 7.3 WSW 15 17 8 9 1007.1 1007.1 0.0
18/04:00am 27.4 26.7 16.4 51 6.8 WSW 15 17 8 9 1006.8 1006.8 0.0
18/03:30am 27.4 26.9 14.8 46 7.6 SW 11 15 6 8 1006.7 1006.7 0.0
18/03:00am 28.1 26.5 16.1 48 7.4 WSW 19 20 10 11 1006.4 1006.4 0.0
18/02:30am 28.1 27.3 17.0 51 6.9 WSW 17 20 9 11 1006.4 1006.4 0.0
18/02:00am 28.4 27.3 17.3 51 7.0 W 19 20 10 11 1006.4 1006.4 0.0
18/01:30am 28.6 27.8 17.2 50 7.2 WSW 17 19 9 10 1006.6 1006.6 0.0
18/01:00am 28.9 28.2 17.4 49 7.3 WSW 17 20 9 11 1006.7 1006.7 0.0
18/12:30am 29.2 27.6 17.4 49 7.5 WSW 22 28 12 15 1006.8 1006.8 0.0
18/12:00am 29.7 27.6 17.2 47 7.9 WSW 24 28 13 15 1007.0 1007.0 0.0
 
Date/Time
WST
Temp
°C
App
Temp
°C
Dew
Point
°C
Rel
Hum
%
Delta-T
°C
Wind Press
QNH
hPa
Press
MSL
hPa
Rain since
9am
mm
Dir  Spd
km/h
Gust
km/h
Spd
kts
Gust
kts
17/11:30pm 30.0 27.9 17.1 46 8.1 WSW 24 30 13 16 1007.3 1007.3 0.0
17/11:00pm 30.4 28.3 17.1 44 8.4 WSW 24 28 13 15 1007.5 1007.5 0.0
17/10:30pm 30.2 28.8 18.0 48 7.8 WSW 22 26 12 14 1007.7 1007.7 0.0
17/10:00pm 30.2 28.6 18.3 49 7.7 W 24 26 13 14 1007.9 1007.9 0.0
17/09:30pm 30.2 28.5 18.9 50 7.3 W 26 30 14 16 1007.8 1007.8 0.0
17/09:00pm 30.0 28.5 20.3 56 6.4 W 28 32 15 17 1007.7 1007.7 0.0
17/08:30pm 30.1 28.3 21.2 59 6.0 W 32 35 17 19 1007.6 1007.6 0.0
17/08:00pm 30.4 28.6 20.3 54 6.7 W 30 35 16 19 1007.5 1007.5 0.0
17/07:30pm 30.6 28.2 19.9 52 7.0 W 32 37 17 20 1007.4 1007.4 0.0
17/07:00pm 31.1 28.3 19.1 48 7.8 W 32 41 17 22 1007.1 1007.1 0.0
17/06:30pm 31.5 28.8 19.2 48 8.0 W 32 39 17 21 1006.8 1006.8 0.0
17/06:00pm 32.6 28.4 18.0 41 9.4 W 37 43 20 23 1006.5 1006.5 0.0
17/05:30pm 33.8 29.8 17.5 38 10.5 W 35 44 19 24 1006.3 1006.3 0.0
17/05:00pm 35.0 30.4 17.2 34 11.5 W 37 44 20 24 1006.2 1006.2 0.0
17/04:30pm 35.7 32.0 17.4 33 11.8 W 33 41 18 22 1006.4 1006.4 0.0
17/04:00pm 37.6 34.4 18.1 32 12.8 W 32 37 17 20 1006.4 1006.4 0.0
17/03:30pm 37.0 33.4 17.6 32 12.6 W 33 43 18 23 1006.3 1006.3 0.0
17/03:00pm 37.8 34.4 17.7 30 13.1 W 32 39 17 21 1006.5 1006.5 0.0
17/02:30pm 38.4 34.7 16.1 27 14.3 WNW 30 35 16 19 1006.9 1006.9 0.0
17/02:00pm 37.4 34.6 17.4 30 13.0 WNW 28 33 15 18 1007.2 1007.2 0.0
17/01:30pm 37.6 34.5 16.5 28 13.5 WNW 28 33 15 18 1007.4 1007.4 0.0
17/01:00pm 38.6 36.2 16.3 27 14.3 NW 24 32 13 17 1007.9 1007.9 0.0
17/12:30pm 37.5 36.3 17.5 30 13.0 NNW 20 28 11 15 1008.4 1008.4 0.0
17/12:00pm 37.4 35.1 15.8 27 13.7 NW 22 28 12 15 1008.8 1008.8 0.0
17/11:30am 38.6 36.9 16.3 27 14.3 NW 20 26 11 14 1009.2 1009.2 0.0
17/11:00am 38.4 36.6 16.1 27 14.3 NW 20 26 11 14 1009.6 1009.6 0.0
17/10:30am 37.1 36.1 16.6 29 13.1 NW 17 24 9 13 1010.1 1010.1 0.0
17/10:00am 35.3 33.9 18.0 36 11.3 NW 22 28 12 15 1010.4 1010.4 0.0
17/09:30am 38.4 35.6 11.5 20 16.1 S 17 24 9 13 1010.8 1010.8 0.0
17/09:00am 36.6 34.2 12.8 24 14.4 S 17 22 9 12 1011.2 1011.2 0.0

Other Formats:

Comma delimited format used in spreadsheet applications
http://www.bom.gov.au/fwo/IDW60801/IDW60801.95307.axf

JavaScript Object Notation format (JSON) in row-major order
http://www.bom.gov.au/fwo/IDW60801/IDW60801.95307.json